Time;durP1;ratioP1;P1;durP2;ratioP2;P2;SDS_P1;SDS_P2;PMS_P1;PMS_P2;Temp;Humidity;BMP_temperature;BMP_pressure;BME280_temperature;BME280_humidity;BME280_pressure;Samples;Min_cycle;Max_cycle;Signal;HPM_P1;HPM_P2
2023/07/02 00:00:32;;;;;;;17.08;6.88;;;;;;;;;;4884697;29;21595;-60
2023/07/02 00:02:59;;;;;;;15.75;6.18;;;;;;;;;;4885049;29;20035;-60
2023/07/02 00:05:26;;;;;;;13.95;6.18;;;;;;;;;;4884251;29;20119;-60
2023/07/02 00:07:52;;;;;;;21.20;7.43;;;;;;;;;;4885348;29;20060;-60
2023/07/02 00:10:18;;;;;;;16.98;6.57;;;;;;;;;;4884925;29;20155;-60
2023/07/02 00:12:44;;;;;;;16.58;6.13;;;;;;;;;;4884184;29;20048;-60
2023/07/02 00:15:10;;;;;;;19.38;6.45;;;;;;;;;;4884127;29;20036;-60
2023/07/02 00:17:39;;;;;;;20.35;6.68;;;;;;;;;;4884788;29;21550;-60
2023/07/02 00:20:06;;;;;;;13.45;5.70;;;;;;;;;;4884634;29;20044;-60
2023/07/02 00:22:36;;;;;;;18.42;6.88;;;;;;;;;;4884705;29;20032;-60
2023/07/02 00:25:02;;;;;;;16.13;6.15;;;;;;;;;;4884392;29;20040;-60
2023/07/02 00:27:28;;;;;;;22.88;8.23;;;;;;;;;;4884031;29;20055;-60
2023/07/02 00:29:54;;;;;;;16.40;6.18;;;;;;;;;;4884653;29;20024;-60
2023/07/02 00:32:20;;;;;;;17.17;6.32;;;;;;;;;;4884389;29;20029;-60
2023/07/02 00:34:46;;;;;;;17.85;7.57;;;;;;;;;;4884383;29;20024;-60
2023/07/02 00:37:12;;;;;;;17.40;7.25;;;;;;;;;;4884199;29;20028;-60
2023/07/02 00:39:38;;;;;;;19.05;6.82;;;;;;;;;;4884898;29;20032;-60
2023/07/02 00:42:04;;;;;;;19.25;7.32;;;;;;;;;;4884617;29;20032;-60
2023/07/02 00:44:30;;;;;;;21.55;6.93;;;;;;;;;;4884230;29;20032;-60
2023/07/02 00:46:56;;;;;;;20.60;7.47;;;;;;;;;;4883781;29;20079;-60
2023/07/02 00:49:23;;;;;;;19.80;7.85;;;;;;;;;;4883615;29;20059;-60
2023/07/02 00:51:49;;;;;;;17.67;7.30;;;;;;;;;;4884913;29;20035;-60
2023/07/02 00:54:15;;;;;;;23.65;7.15;;;;;;;;;;4884392;29;20047;-60
2023/07/02 00:56:41;;;;;;;19.38;7.28;;;;;;;;;;4883410;29;20039;-60
2023/07/02 00:59:07;;;;;;;18.95;7.50;;;;;;;;;;4883314;29;20048;-60
2023/07/02 01:01:37;;;;;;;22.40;8.43;;;;;;;;;;4883743;29;20039;-60
2023/07/02 01:04:04;;;;;;;17.20;6.45;;;;;;;;;;4883394;29;20032;-60
2023/07/02 01:06:34;;;;;;;24.17;6.95;;;;;;;;;;4883417;29;20047;-60
2023/07/02 01:09:04;;;;;;;18.67;7.43;;;;;;;;;;4883650;29;20040;-61
2023/07/02 01:11:32;;;;;;;20.58;8.60;;;;;;;;;;4881786;29;20124;-60
2023/07/02 01:14:27;;;;;;;22.75;8.73;;;;;;;;;;4883412;29;20044;-60
2023/07/02 01:16:55;;;;;;;18.70;7.95;;;;;;;;;;4863740;29;20099;-60
2023/07/02 01:19:43;;;;;;;24.35;8.57;;;;;;;;;;4883267;29;20055;-60
2023/07/02 01:22:10;;;;;;;16.38;7.18;;;;;;;;;;4883701;29;20039;-60
2023/07/02 01:24:39;;;;;;;22.15;8.30;;;;;;;;;;4884198;29;20091;-60
2023/07/02 01:27:05;;;;;;;22.38;8.05;;;;;;;;;;4882349;29;20047;-61
2023/07/02 01:29:31;;;;;;;21.17;7.03;;;;;;;;;;4882579;29;22044;-60
2023/07/02 01:31:58;;;;;;;18.10;8.00;;;;;;;;;;4882331;29;20123;-60
2023/07/02 01:34:24;;;;;;;21.88;8.35;;;;;;;;;;4882325;29;20031;-61
2023/07/02 01:36:50;;;;;;;22.60;8.52;;;;;;;;;;4883147;29;20072;-60
2023/07/02 01:39:16;;;;;;;23.00;8.25;;;;;;;;;;4883414;29;20032;-60
2023/07/02 01:41:49;;;;;;;24.10;8.48;;;;;;;;;;4883313;29;20040;-60
2023/07/02 01:44:15;;;;;;;;;;;;;;;;;;4883069;29;20040;-60
2023/07/02 01:46:41;;;;;;;18.45;7.18;;;;;;;;;;4883287;29;21266;-60
2023/07/02 01:49:08;;;;;;;21.13;7.50;;;;;;;;;;4882603;29;20040;-60
2023/07/02 01:51:34;;;;;;;21.40;7.63;;;;;;;;;;4881931;29;20040;-60
2023/07/02 01:54:00;;;;;;;22.58;8.35;;;;;;;;;;4880882;29;20039;-60
2023/07/02 01:56:27;;;;;;;18.80;7.57;;;;;;;;;;4881512;29;20032;-60
2023/07/02 01:58:53;;;;;;;22.13;7.88;;;;;;;;;;4881328;29;20032;-60
2023/07/02 02:01:19;;;;;;;20.88;8.57;;;;;;;;;;4881072;29;20436;-60
2023/07/02 02:03:45;;;;;;;22.30;8.88;;;;;;;;;;4881386;29;20078;-60
2023/07/02 02:06:11;;;;;;;20.58;8.27;;;;;;;;;;4881293;29;20071;-60
2023/07/02 02:08:37;;;;;;;22.92;8.25;;;;;;;;;;4881532;29;20040;-60
2023/07/02 02:11:03;;;;;;;24.77;8.13;;;;;;;;;;4881121;29;20048;-60
2023/07/02 02:13:29;;;;;;;25.45;8.85;;;;;;;;;;4882086;29;20032;-60
2023/07/02 02:15:56;;;;;;;25.98;9.25;;;;;;;;;;4881057;29;20040;-60
2023/07/02 02:18:22;;;;;;;17.98;7.32;;;;;;;;;;4879813;29;20138;-60
2023/07/02 02:20:49;;;;;;;22.08;7.82;;;;;;;;;;4881709;29;20040;-60
2023/07/02 02:23:15;;;;;;;23.85;9.05;;;;;;;;;;4880557;29;20040;-60
2023/07/02 02:25:41;;;;;;;21.85;7.72;;;;;;;;;;4880864;29;21369;-60
2023/07/02 02:28:07;;;;;;;18.95;7.93;;;;;;;;;;4881465;29;20139;-60
2023/07/02 02:30:33;;;;;;;22.45;8.43;;;;;;;;;;4881333;29;20793;-60
2023/07/02 02:32:59;;;;;;;24.10;7.80;;;;;;;;;;4864822;29;20044;-60
2023/07/02 02:35:25;;;;;;;23.77;7.45;;;;;;;;;;4881186;29;20044;-60
2023/07/02 02:37:51;;;;;;;25.08;9.00;;;;;;;;;;4880837;29;20032;-60
2023/07/02 02:40:17;;;;;;;21.65;7.97;;;;;;;;;;4881697;29;20032;-60
2023/07/02 02:42:43;;;;;;;20.05;8.48;;;;;;;;;;4881761;29;20036;-60
2023/07/02 02:45:10;;;;;;;22.35;8.35;;;;;;;;;;4880876;29;20028;-60
2023/07/02 02:47:36;;;;;;;28.42;7.85;;;;;;;;;;4881128;29;20028;-61
2023/07/02 02:50:02;;;;;;;22.15;8.95;;;;;;;;;;4879350;29;20060;-60
2023/07/02 02:52:28;;;;;;;21.50;8.20;;;;;;;;;;4879259;29;20047;-60
2023/07/02 02:54:54;;;;;;;22.55;8.60;;;;;;;;;;4879813;29;20037;-60
2023/07/02 02:57:20;;;;;;;20.52;7.93;;;;;;;;;;4878670;29;20035;-60
2023/07/02 02:59:46;;;;;;;22.83;7.78;;;;;;;;;;4879494;29;20142;-60
2023/07/02 03:02:12;;;;;;;23.85;8.63;;;;;;;;;;4879460;29;20056;-60
2023/07/02 03:04:39;;;;;;;23.50;8.40;;;;;;;;;;4878893;29;20036;-60
2023/07/02 03:07:06;;;;;;;24.30;8.07;;;;;;;;;;4879778;29;20551;-60
2023/07/02 03:09:32;;;;;;;22.92;8.35;;;;;;;;;;4879000;29;20390;-60
2023/07/02 03:11:58;;;;;;;20.30;7.82;;;;;;;;;;4880675;29;20036;-60
2023/07/02 03:14:24;;;;;;;24.27;7.78;;;;;;;;;;4882797;29;20032;-60
2023/07/02 03:16:50;;;;;;;23.88;8.55;;;;;;;;;;4882999;29;20036;-60
2023/07/02 03:19:16;;;;;;;19.95;7.90;;;;;;;;;;4883439;29;20055;-60
2023/07/02 03:21:43;;;;;;;21.88;8.20;;;;;;;;;;4882468;29;20032;-60
2023/07/02 03:24:13;;;;;;;24.13;8.65;;;;;;;;;;4882571;29;20114;-60
2023/07/02 03:26:40;;;;;;;20.98;8.38;;;;;;;;;;4882450;29;20047;-60
2023/07/02 03:29:06;;;;;;;23.00;7.35;;;;;;;;;;4883831;29;20043;-60
2023/07/02 03:31:33;;;;;;;25.25;8.52;;;;;;;;;;4884267;29;20032;-60
2023/07/02 03:33:59;;;;;;;26.77;8.15;;;;;;;;;;4883448;29;20124;-60
2023/07/02 03:36:25;;;;;;;23.58;8.45;;;;;;;;;;4882020;29;21798;-60
2023/07/02 03:38:51;;;;;;;22.73;8.15;;;;;;;;;;4882177;29;20036;-60
2023/07/02 03:41:17;;;;;;;19.15;8.32;;;;;;;;;;4883053;29;20628;-60
2023/07/02 03:43:43;;;;;;;22.45;7.72;;;;;;;;;;4884137;29;20407;-60
2023/07/02 03:46:09;;;;;;;24.60;8.57;;;;;;;;;;4883957;29;20495;-60
2023/07/02 03:48:35;;;;;;;17.58;7.65;;;;;;;;;;4884554;29;20115;-60
2023/07/02 03:51:03;;;;;;;23.63;7.97;;;;;;;;;;4884225;29;20068;-60
2023/07/02 03:53:29;;;;;;;25.17;8.63;;;;;;;;;;4883998;29;21033;-60
2023/07/02 03:55:55;;;;;;;24.88;8.15;;;;;;;;;;4883626;29;20040;-60
2023/07/02 03:58:21;;;;;;;24.20;7.30;;;;;;;;;;4883871;29;20508;-60
2023/07/02 04:00:49;;;;;;;27.08;7.20;;;;;;;;;;4883626;29;20550;-60
2023/07/02 04:03:15;;;;;;;22.65;8.52;;;;;;;;;;4883509;29;20123;-60
2023/07/02 04:05:41;;;;;;;22.48;7.63;;;;;;;;;;4883492;29;21593;-60
2023/07/02 04:08:07;;;;;;;25.92;8.13;;;;;;;;;;4882151;29;20040;-60
2023/07/02 04:10:33;;;;;;;20.05;7.28;;;;;;;;;;4883332;29;20108;-60
2023/07/02 04:13:00;;;;;;;23.30;7.40;;;;;;;;;;4882850;29;20059;-60
2023/07/02 04:15:26;;;;;;;20.58;7.45;;;;;;;;;;4883311;29;20039;-60
2023/07/02 04:17:53;;;;;;;22.90;8.30;;;;;;;;;;4882670;29;20056;-60
2023/07/02 04:20:19;;;;;;;20.02;8.05;;;;;;;;;;4883078;29;20044;-60
2023/07/02 04:22:45;;;;;;;20.15;7.47;;;;;;;;;;4882909;29;20033;-60
2023/07/02 04:25:14;;;;;;;18.10;7.90;;;;;;;;;;4881016;29;22234;-60
2023/07/02 04:27:41;;;;;;;17.00;7.43;;;;;;;;;;4883165;29;20036;-60
2023/07/02 04:30:09;;;;;;;22.42;7.43;;;;;;;;;;4882314;29;20873;-60
2023/07/02 04:32:35;;;;;;;17.48;7.32;;;;;;;;;;4882284;29;20028;-60
2023/07/02 04:35:01;;;;;;;26.05;9.52;;;;;;;;;;4883073;29;20032;-60
2023/07/02 04:37:28;;;;;;;17.67;7.15;;;;;;;;;;4882346;29;20859;-60
2023/07/02 04:39:54;;;;;;;20.83;8.55;;;;;;;;;;4868686;29;20780;-60
2023/07/02 04:42:20;;;;;;;23.27;8.02;;;;;;;;;;4882126;29;20068;-60
2023/07/02 04:44:46;;;;;;;19.73;7.25;;;;;;;;;;4881672;29;20060;-60
2023/07/02 04:47:12;;;;;;;24.95;7.53;;;;;;;;;;4882213;29;20119;-60
2023/07/02 04:49:39;;;;;;;22.27;8.23;;;;;;;;;;4881964;29;20087;-60
2023/07/02 04:52:05;;;;;;;19.23;7.63;;;;;;;;;;4883049;29;20499;-60
2023/07/02 04:54:31;;;;;;;20.98;7.50;;;;;;;;;;4881718;29;20432;-60
2023/07/02 04:56:58;;;;;;;22.13;7.22;;;;;;;;;;4882008;29;20036;-60
2023/07/02 04:59:24;;;;;;;18.73;6.43;;;;;;;;;;4882236;29;20056;-60
2023/07/02 05:01:51;;;;;;;17.70;6.22;;;;;;;;;;4882349;29;20036;-60
2023/07/02 05:04:17;;;;;;;16.80;6.10;;;;;;;;;;4882432;29;20041;-60
2023/07/02 05:06:43;;;;;;;19.05;6.60;;;;;;;;;;4883241;29;20040;-60
2023/07/02 05:09:09;;;;;;;16.42;5.28;;;;;;;;;;4882635;29;20032;-60
2023/07/02 05:11:35;;;;;;;15.10;5.45;;;;;;;;;;4881955;29;20047;-60
2023/07/02 05:14:01;;;;;;;16.88;6.22;;;;;;;;;;4882624;29;20076;-60
2023/07/02 05:16:27;;;;;;;17.85;5.63;;;;;;;;;;4882460;29;20032;-60
2023/07/02 05:18:53;;;;;;;17.88;6.20;;;;;;;;;;4882753;29;20052;-60
2023/07/02 05:21:19;;;;;;;13.45;5.05;;;;;;;;;;4884160;29;20044;-60
2023/07/02 05:23:45;;;;;;;18.08;6.13;;;;;;;;;;4883264;29;20036;-60
2023/07/02 05:26:11;;;;;;;20.88;6.32;;;;;;;;;;4884051;29;20051;-60
2023/07/02 05:28:37;;;;;;;14.52;5.72;;;;;;;;;;4883365;29;20043;-60
2023/07/02 05:31:04;;;;;;;18.33;5.45;;;;;;;;;;4883886;29;21973;-60
2023/07/02 05:33:32;;;;;;;18.05;5.30;;;;;;;;;;4884272;29;20587;-60
2023/07/02 05:35:58;;;;;;;15.32;5.60;;;;;;;;;;4884078;29;20044;-60
2023/07/02 05:38:24;;;;;;;14.60;5.88;;;;;;;;;;4883360;29;20064;-60
2023/07/02 05:40:50;;;;;;;13.95;5.63;;;;;;;;;;4883514;29;20036;-61
2023/07/02 05:43:16;;;;;;;13.15;5.25;;;;;;;;;;4883160;29;20060;-60
2023/07/02 05:45:42;;;;;;;16.10;6.03;;;;;;;;;;4883652;29;20456;-60
2023/07/02 05:48:08;;;;;;;16.77;5.63;;;;;;;;;;4883879;29;20845;-60
2023/07/02 05:50:35;;;;;;;17.30;5.38;;;;;;;;;;4884276;29;20498;-60
2023/07/02 05:53:01;;;;;;;20.30;6.57;;;;;;;;;;4882859;29;20036;-61
2023/07/02 05:55:27;;;;;;;18.35;6.78;;;;;;;;;;4883473;29;20036;-61
2023/07/02 05:57:53;;;;;;;15.00;5.85;;;;;;;;;;4883326;29;20058;-60
2023/07/02 06:00:19;;;;;;;16.35;5.68;;;;;;;;;;4883638;29;20036;-60
2023/07/02 06:02:48;;;;;;;15.95;5.88;;;;;;;;;;4867026;29;20871;-60
2023/07/02 06:05:14;;;;;;;15.70;5.65;;;;;;;;;;4884245;29;20868;-60
2023/07/02 06:07:40;;;;;;;17.25;6.45;;;;;;;;;;4884098;29;20044;-60
2023/07/02 06:10:06;;;;;;;14.95;5.10;;;;;;;;;;4884516;29;20032;-61
2023/07/02 06:12:32;;;;;;;16.13;5.53;;;;;;;;;;4883650;29;20063;-60
2023/07/02 06:14:58;;;;;;;14.77;4.95;;;;;;;;;;4884490;29;20174;-61
2023/07/02 06:17:25;;;;;;;13.65;5.38;;;;;;;;;;4883277;29;21449;-61
2023/07/02 06:19:51;;;;;;;18.92;5.53;;;;;;;;;;4882611;29;20055;-61
2023/07/02 06:22:17;;;;;;;12.18;5.00;;;;;;;;;;4882123;29;20087;-60
2023/07/02 06:24:43;;;;;;;12.70;4.90;;;;;;;;;;4882598;29;20116;-61
2023/07/02 06:27:09;;;;;;;17.25;5.45;;;;;;;;;;4882054;29;20587;-60
2023/07/02 06:29:35;;;;;;;15.10;5.68;;;;;;;;;;4882494;29;20542;-61
2023/07/02 06:32:01;;;;;;;11.40;4.93;;;;;;;;;;4881340;29;20150;-61
2023/07/02 06:34:27;;;;;;;16.05;5.60;;;;;;;;;;4880973;29;20044;-61
2023/07/02 06:36:53;;;;;;;17.42;5.35;;;;;;;;;;4879763;29;20043;-62
2023/07/02 06:39:19;;;;;;;17.30;4.43;;;;;;;;;;4878848;29;20052;-61
2023/07/02 06:41:45;;;;;;;13.73;4.63;;;;;;;;;;4879840;29;20040;-61
2023/07/02 06:44:12;;;;;;;14.73;4.80;;;;;;;;;;4881734;29;20041;-62
2023/07/02 06:46:38;;;;;;;11.85;4.53;;;;;;;;;;4880189;29;20036;-62
2023/07/02 06:49:04;;;;;;;15.77;4.38;;;;;;;;;;4881446;29;20044;-62
2023/07/02 06:51:30;;;;;;;14.20;3.55;;;;;;;;;;4881869;29;20047;-61
2023/07/02 06:53:56;;;;;;;13.07;3.22;;;;;;;;;;4881483;29;20136;-62
2023/07/02 06:56:22;;;;;;;13.88;3.58;;;;;;;;;;4881933;29;20116;-62
2023/07/02 06:58:48;;;;;;;11.15;3.30;;;;;;;;;;4880912;29;20056;-62
2023/07/02 07:01:14;;;;;;;9.77;3.10;;;;;;;;;;4880873;29;21297;-62
2023/07/02 07:03:41;;;;;;;13.02;3.25;;;;;;;;;;4881591;29;20055;-62
2023/07/02 07:06:07;;;;;;;14.32;3.70;;;;;;;;;;4881855;29;20064;-61
2023/07/02 07:08:33;;;;;;;13.55;3.72;;;;;;;;;;4882416;29;20044;-61
2023/07/02 07:10:59;;;;;;;18.25;4.07;;;;;;;;;;4881758;29;20048;-61
2023/07/02 07:13:25;;;;;;;14.02;3.67;;;;;;;;;;4882162;29;20028;-62
2023/07/02 07:15:51;;;;;;;13.90;3.78;;;;;;;;;;4881455;29;20048;-62
2023/07/02 07:18:18;;;;;;;15.10;3.40;;;;;;;;;;4882194;29;20060;-62
2023/07/02 07:20:44;;;;;;;9.23;2.88;;;;;;;;;;4881943;29;20074;-62
2023/07/02 07:23:10;;;;;;;10.30;3.17;;;;;;;;;;4882499;29;20717;-62
2023/07/02 07:25:36;;;;;;;10.18;2.88;;;;;;;;;;4880718;29;20040;-62
2023/07/02 07:28:02;;;;;;;11.63;3.67;;;;;;;;;;4881466;29;20047;-62
2023/07/02 07:30:28;;;;;;;12.30;2.92;;;;;;;;;;4881089;29;20051;-62
2023/07/02 07:32:54;;;;;;;9.88;3.78;;;;;;;;;;4866005;29;20111;-61
2023/07/02 07:35:21;;;;;;;14.30;3.30;;;;;;;;;;4881594;29;20047;-62
2023/07/02 07:37:47;;;;;;;12.32;3.60;;;;;;;;;;4881766;29;20032;-62
2023/07/02 07:40:14;;;;;;;16.65;3.20;;;;;;;;;;4881568;29;20048;-62
2023/07/02 07:42:40;;;;;;;11.00;2.72;;;;;;;;;;4881205;29;20041;-62
2023/07/02 07:45:06;;;;;;;10.38;3.40;;;;;;;;;;4882223;29;20037;-62
2023/07/02 07:47:33;;;;;;;15.15;3.42;;;;;;;;;;4881934;29;20036;-62
2023/07/02 07:49:59;;;;;;;10.07;3.20;;;;;;;;;;4866740;29;20112;-62
2023/07/02 07:52:25;;;;;;;9.90;3.30;;;;;;;;;;4881147;29;20036;-62
2023/07/02 07:54:51;;;;;;;12.65;3.00;;;;;;;;;;4880580;29;20044;-62
2023/07/02 07:57:17;;;;;;;14.32;3.38;;;;;;;;;;4867712;29;21351;-62
2023/07/02 07:59:43;;;;;;;10.95;3.50;;;;;;;;;;4882996;29;20051;-62
2023/07/02 08:02:09;;;;;;;10.85;4.00;;;;;;;;;;4883905;29;20110;-62
2023/07/02 08:04:35;;;;;;;13.38;3.63;;;;;;;;;;4884076;29;20039;-62
2023/07/02 08:07:04;;;;;;;11.00;4.10;;;;;;;;;;4866343;29;20040;-62
2023/07/02 08:09:30;;;;;;;9.80;3.50;;;;;;;;;;4883892;29;20063;-62
2023/07/02 08:11:56;;;;;;;13.40;2.97;;;;;;;;;;4883606;29;20119;-62
2023/07/02 08:14:22;;;;;;;11.60;3.20;;;;;;;;;;4883496;29;20614;-62
2023/07/02 08:16:48;;;;;;;12.10;3.50;;;;;;;;;;4884039;29;20641;-62
2023/07/02 08:19:14;;;;;;;10.13;2.80;;;;;;;;;;4885074;29;20049;-62
2023/07/02 08:21:40;;;;;;;11.02;3.38;;;;;;;;;;4884971;29;20182;-61
2023/07/02 08:24:06;;;;;;;10.60;3.05;;;;;;;;;;4882970;29;21115;-62
2023/07/02 08:26:32;;;;;;;13.23;4.07;;;;;;;;;;4884742;29;20040;-62
2023/07/02 08:28:58;;;;;;;10.05;3.42;;;;;;;;;;4885198;29;20128;-62
2023/07/02 08:31:25;;;;;;;20.23;4.13;;;;;;;;;;4883609;29;20133;-62
2023/07/02 08:33:51;;;;;;;11.48;3.20;;;;;;;;;;4883288;29;20075;-61
2023/07/02 08:36:17;;;;;;;13.88;4.40;;;;;;;;;;4881661;29;20041;-62
2023/07/02 08:38:43;;;;;;;14.15;3.67;;;;;;;;;;4876792;29;20036;-62
2023/07/02 08:41:09;;;;;;;10.57;3.78;;;;;;;;;;4876452;29;20701;-61
2023/07/02 08:43:36;;;;;;;13.02;4.28;;;;;;;;;;4878765;29;20047;-61
2023/07/02 08:46:02;;;;;;;14.10;3.88;;;;;;;;;;4879857;29;20408;-61
2023/07/02 08:48:29;;;;;;;15.18;3.55;;;;;;;;;;4880119;29;21177;-62
2023/07/02 08:50:58;;;;;;;9.95;3.38;;;;;;;;;;4877583;29;21310;-61
2023/07/02 08:53:29;;;;;;;12.10;3.08;;;;;;;;;;4878455;29;20159;-62
2023/07/02 08:55:56;;;;;;;11.07;3.80;;;;;;;;;;4878274;29;20028;-62
2023/07/02 08:58:22;;;;;;;11.18;3.47;;;;;;;;;;4877774;29;20467;-61
2023/07/02 09:01:07;;;;;;;14.30;3.42;;;;;;;;;;4878167;29;20182;-62
2023/07/02 09:03:33;;;;;;;15.00;4.05;;;;;;;;;;4877735;29;20138;-62
2023/07/02 09:05:59;;;;;;;12.75;3.85;;;;;;;;;;4877587;29;20932;-62
2023/07/02 09:08:29;;;;;;;13.90;3.78;;;;;;;;;;4878605;29;20085;-62
2023/07/02 09:10:55;;;;;;;10.73;3.38;;;;;;;;;;4877012;29;21936;-62
2023/07/02 09:13:21;;;;;;;9.77;3.20;;;;;;;;;;4877655;29;20036;-62
2023/07/02 09:15:47;;;;;;;12.13;3.03;;;;;;;;;;4876772;29;20118;-62
2023/07/02 09:18:21;;;;;;;11.52;2.83;;;;;;;;;;4877065;29;20050;-62
2023/07/02 09:20:47;;;;;;;11.70;3.50;;;;;;;;;;4875906;29;21950;-62
2023/07/02 09:23:13;;;;;;;8.50;2.63;;;;;;;;;;4874562;29;20032;-62
2023/07/02 09:25:40;;;;;;;11.57;3.03;;;;;;;;;;4876527;29;20036;-62
2023/07/02 09:28:16;;;;;;;10.68;2.58;;;;;;;;;;4876401;29;20050;-62
2023/07/02 09:30:52;;;;;;;9.80;2.55;;;;;;;;;;4877084;29;20123;-62
2023/07/02 09:33:18;;;;;;;9.55;2.70;;;;;;;;;;4875547;29;20043;-62
2023/07/02 09:35:44;;;;;;;11.18;2.58;;;;;;;;;;4874552;29;20044;-62
2023/07/02 09:38:11;;;;;;;7.60;2.47;;;;;;;;;;4875983;29;20585;-62
2023/07/02 09:40:43;;;;;;;8.48;3.05;;;;;;;;;;4874953;29;20052;-62
2023/07/02 09:43:09;;;;;;;10.57;2.73;;;;;;;;;;4875732;29;20047;-62
2023/07/02 09:45:36;;;;;;;9.80;3.28;;;;;;;;;;4874954;29;20167;-62
2023/07/02 09:48:02;;;;;;;8.70;2.70;;;;;;;;;;4873263;29;20411;-62
2023/07/02 09:50:29;;;;;;;9.20;2.60;;;;;;;;;;4874650;29;20115;-62
2023/07/02 09:52:55;;;;;;;10.68;2.83;;;;;;;;;;4876209;29;20075;-62
2023/07/02 09:55:22;;;;;;;11.00;2.45;;;;;;;;;;4876440;29;20032;-62
2023/07/02 09:57:48;;;;;;;7.93;2.17;;;;;;;;;;4874725;29;20039;-62
2023/07/02 10:00:15;;;;;;;11.50;2.63;;;;;;;;;;4875441;29;20040;-62
2023/07/02 10:02:41;;;;;;;13.55;3.13;;;;;;;;;;4875780;29;20032;-62
2023/07/02 10:05:07;;;;;;;10.30;3.25;;;;;;;;;;4875896;29;20032;-62
2023/07/02 10:07:33;;;;;;;13.75;2.97;;;;;;;;;;4875261;29;20095;-62
2023/07/02 10:10:00;;;;;;;8.68;2.88;;;;;;;;;;4875585;29;20532;-62
2023/07/02 10:12:27;;;;;;;12.40;3.22;;;;;;;;;;4859623;29;20040;-62
2023/07/02 10:14:55;;;;;;;9.77;2.40;;;;;;;;;;4875572;29;20121;-62
2023/07/02 10:17:34;;;;;;;7.82;2.28;;;;;;;;;;4875148;29;20441;-62
2023/07/02 10:20:11;;;;;;;8.63;2.75;;;;;;;;;;4875827;29;20145;-62
2023/07/02 10:22:53;;;;;;;9.45;2.30;;;;;;;;;;4875524;29;20029;-62
2023/07/02 10:25:29;;;;;;;11.77;2.63;;;;;;;;;;4875471;29;20083;-61
2023/07/02 10:27:55;;;;;;;9.30;2.90;;;;;;;;;;4875820;29;20031;-62
2023/07/02 10:30:38;;;;;;;9.85;2.72;;;;;;;;;;4873957;29;20040;-61
2023/07/02 10:33:10;;;;;;;12.02;3.25;;;;;;;;;;4874540;29;20036;-62
2023/07/02 10:35:36;;;;;;;12.18;3.25;;;;;;;;;;4875378;29;20076;-61
2023/07/02 10:38:02;;;;;;;15.68;3.58;;;;;;;;;;4876230;29;20357;-62
2023/07/02 10:40:29;;;;;;;11.02;3.17;;;;;;;;;;4875541;29;20036;-61
2023/07/02 10:42:55;;;;;;;8.68;2.83;;;;;;;;;;4876252;29;20040;-61
2023/07/02 10:45:21;;;;;;;10.98;3.28;;;;;;;;;;4876113;29;20083;-62
2023/07/02 10:47:47;;;;;;;12.55;3.22;;;;;;;;;;4875755;29;20032;-61
2023/07/02 10:50:16;;;;;;;11.93;3.03;;;;;;;;;;4876300;29;20707;-61
2023/07/02 10:52:42;;;;;;;9.93;2.45;;;;;;;;;;4875984;29;20036;-61
2023/07/02 10:55:09;;;;;;;9.10;2.83;;;;;;;;;;4876274;29;20036;-61
2023/07/02 10:57:35;;;;;;;13.15;3.58;;;;;;;;;;4874382;29;20123;-61
2023/07/02 11:00:08;;;;;;;8.68;2.88;;;;;;;;;;4875915;29;20025;-61
2023/07/02 11:02:37;;;;;;;11.25;2.83;;;;;;;;;;4875320;29;20151;-61
2023/07/02 11:05:06;;;;;;;11.43;3.45;;;;;;;;;;4875726;29;20384;-61
2023/07/02 11:07:32;;;;;;;14.30;3.45;;;;;;;;;;4874560;29;20050;-61
2023/07/02 11:09:58;;;;;;;10.35;3.08;;;;;;;;;;4875156;29;20107;-61
2023/07/02 11:12:31;;;;;;;15.35;4.20;;;;;;;;;;4875688;29;20036;-61
2023/07/02 11:15:08;;;;;;;11.67;3.50;;;;;;;;;;4875272;29;20068;-61
2023/07/02 11:17:34;;;;;;;10.20;3.08;;;;;;;;;;4874380;29;20046;-61
2023/07/02 11:20:00;;;;;;;10.13;2.75;;;;;;;;;;4874735;29;20055;-61
2023/07/02 11:22:33;;;;;;;9.27;2.53;;;;;;;;;;4875753;29;20511;-61
2023/07/02 11:25:08;;;;;;;9.93;2.72;;;;;;;;;;4875726;29;20567;-61
2023/07/02 11:27:34;;;;;;;9.85;2.70;;;;;;;;;;4876090;29;20040;-61
2023/07/02 11:30:00;;;;;;;10.73;2.70;;;;;;;;;;4875503;29;20504;-61
2023/07/02 11:32:27;;;;;;;9.25;2.88;;;;;;;;;;4875841;29;20707;-61
2023/07/02 11:34:56;;;;;;;7.72;2.08;;;;;;;;;;4879357;29;20134;-61
2023/07/02 11:37:22;;;;;;;9.20;2.92;;;;;;;;;;4880151;29;20975;-61
2023/07/02 11:39:48;;;;;;;9.60;2.70;;;;;;;;;;4878763;29;20039;-61
2023/07/02 11:42:14;;;;;;;8.73;2.83;;;;;;;;;;4879225;29;20116;-61
2023/07/02 11:44:41;;;;;;;9.45;2.78;;;;;;;;;;4879591;29;20647;-61
2023/07/02 11:47:07;;;;;;;13.32;3.20;;;;;;;;;;4879269;29;20892;-62
2023/07/02 11:49:33;;;;;;;11.15;3.10;;;;;;;;;;4878583;29;20043;-62
2023/07/02 11:51:59;;;;;;;9.77;2.45;;;;;;;;;;4879836;29;20039;-62
2023/07/02 11:54:25;;;;;;;9.23;2.40;;;;;;;;;;4879732;29;20051;-61
2023/07/02 11:56:51;;;;;;;8.43;2.40;;;;;;;;;;4879521;29;20056;-61
2023/07/02 11:59:18;;;;;;;6.88;2.58;;;;;;;;;;4879815;29;20040;-61
2023/07/02 12:01:44;;;;;;;7.78;2.42;;;;;;;;;;4880706;29;20040;-61
2023/07/02 12:04:11;;;;;;;6.20;2.08;;;;;;;;;;4879286;29;20091;-61
2023/07/02 12:06:38;;;;;;;11.70;2.83;;;;;;;;;;4864987;29;20051;-61
2023/07/02 12:09:04;;;;;;;11.63;2.33;;;;;;;;;;4863244;29;20044;-61
2023/07/02 12:11:30;;;;;;;8.55;2.67;;;;;;;;;;4880121;29;20488;-61
2023/07/02 12:13:56;;;;;;;12.77;2.80;;;;;;;;;;4880302;29;21186;-61
2023/07/02 12:16:22;;;;;;;10.32;2.95;;;;;;;;;;4879306;29;20033;-61
2023/07/02 12:18:48;;;;;;;9.60;2.38;;;;;;;;;;4879690;29;20047;-61
2023/07/02 12:21:15;;;;;;;8.75;2.65;;;;;;;;;;4879812;29;20040;-61
2023/07/02 12:23:41;;;;;;;9.18;2.58;;;;;;;;;;4880214;29;20060;-61
2023/07/02 12:26:07;;;;;;;7.47;2.70;;;;;;;;;;4880227;29;20024;-61
2023/07/02 12:28:33;;;;;;;10.18;2.78;;;;;;;;;;4880245;29;20045;-61
2023/07/02 12:30:59;;;;;;;7.85;2.58;;;;;;;;;;4880115;29;20091;-61
2023/07/02 12:33:25;;;;;;;10.02;2.63;;;;;;;;;;4879857;29;20087;-61
2023/07/02 12:35:51;;;;;;;11.70;2.60;;;;;;;;;;4879078;29;20123;-62
2023/07/02 12:38:18;;;;;;;10.55;3.47;;;;;;;;;;4879641;29;20040;-61
2023/07/02 12:40:44;;;;;;;10.05;3.35;;;;;;;;;;4879001;29;20036;-61
2023/07/02 12:43:10;;;;;;;8.52;3.40;;;;;;;;;;4879412;29;20074;-61
2023/07/02 12:45:36;;;;;;;10.65;3.40;;;;;;;;;;4878735;29;20031;-61
2023/07/02 12:48:02;;;;;;;9.93;2.78;;;;;;;;;;4879612;29;20028;-61
2023/07/02 12:50:28;;;;;;;7.05;2.60;;;;;;;;;;4879837;29;20032;-61
2023/07/02 12:52:54;;;;;;;11.18;3.65;;;;;;;;;;4879654;29;20029;-61
2023/07/02 12:55:21;;;;;;;8.43;2.90;;;;;;;;;;4879522;29;20040;-61
2023/07/02 12:57:47;;;;;;;13.10;3.28;;;;;;;;;;4878947;29;20130;-61
2023/07/02 13:00:13;;;;;;;10.25;3.47;;;;;;;;;;4879349;29;20242;-61
2023/07/02 13:02:39;;;;;;;11.70;3.75;;;;;;;;;;4879355;29;20519;-61
2023/07/02 13:05:06;;;;;;;12.00;4.00;;;;;;;;;;4879359;29;20724;-62
2023/07/02 13:07:32;;;;;;;11.75;3.28;;;;;;;;;;4879594;29;20051;-61
2023/07/02 13:09:58;;;;;;;10.55;3.10;;;;;;;;;;4878960;29;20044;-62
2023/07/02 13:12:24;;;;;;;15.38;3.50;;;;;;;;;;4879417;29;20095;-61
2023/07/02 13:14:50;;;;;;;13.32;3.72;;;;;;;;;;4879331;29;20749;-61
2023/07/02 13:17:16;;;;;;;10.68;3.45;;;;;;;;;;4878023;29;20036;-61
2023/07/02 13:19:42;;;;;;;10.73;3.45;;;;;;;;;;4878948;29;20078;-61
2023/07/02 13:22:08;;;;;;;13.68;4.75;;;;;;;;;;4879224;29;20056;-61
2023/07/02 13:24:35;;;;;;;15.23;4.13;;;;;;;;;;4879175;29;20791;-61
2023/07/02 13:27:03;;;;;;;17.00;4.25;;;;;;;;;;4878877;29;20457;-61
2023/07/02 13:29:29;;;;;;;13.68;4.25;;;;;;;;;;4878789;29;20040;-61
2023/07/02 13:31:55;;;;;;;8.15;3.80;;;;;;;;;;4878906;29;20135;-61
2023/07/02 13:34:21;;;;;;;12.15;4.25;;;;;;;;;;4878055;29;20095;-61
2023/07/02 13:36:47;;;;;;;16.00;5.15;;;;;;;;;;4877729;29;20032;-61
2023/07/02 13:39:13;;;;;;;10.38;4.35;;;;;;;;;;4878117;29;20067;-61
2023/07/02 13:41:39;;;;;;;10.02;3.60;;;;;;;;;;4878093;29;20749;-61
2023/07/02 13:44:05;;;;;;;11.50;3.75;;;;;;;;;;4877937;29;20039;-61
2023/07/02 13:46:31;;;;;;;12.85;4.32;;;;;;;;;;4878429;29;20040;-61
2023/07/02 13:48:57;;;;;;;9.98;4.03;;;;;;;;;;4877482;29;20075;-61
2023/07/02 13:51:23;;;;;;;12.70;3.85;;;;;;;;;;4877967;29;20048;-61
2023/07/02 13:53:49;;;;;;;13.18;4.28;;;;;;;;;;4878584;29;20036;-61
2023/07/02 13:56:15;;;;;;;13.43;4.15;;;;;;;;;;4878090;29;20583;-61
2023/07/02 13:58:59;;;;;;;12.50;4.18;;;;;;;;;;4878101;29;20035;-61
2023/07/02 14:01:25;;;;;;;10.07;4.32;;;;;;;;;;4877197;29;20429;-61
2023/07/02 14:03:53;;;;;;;12.45;4.30;;;;;;;;;;4878031;29;20032;-61
2023/07/02 14:06:19;;;;;;;10.38;3.60;;;;;;;;;;4877507;29;20576;-61
2023/07/02 14:08:45;;;;;;;13.88;4.13;;;;;;;;;;4877710;29;20052;-61
2023/07/02 14:11:11;;;;;;;11.93;3.83;;;;;;;;;;4877433;29;20124;-61
2023/07/02 14:13:37;;;;;;;11.73;3.97;;;;;;;;;;4862188;29;20032;-61
2023/07/02 14:16:03;;;;;;;12.68;4.20;;;;;;;;;;4878076;29;20039;-61
2023/07/02 14:18:29;;;;;;;12.68;5.03;;;;;;;;;;4877393;29;20040;-61
2023/07/02 14:20:55;;;;;;;12.57;4.47;;;;;;;;;;4877440;29;20048;-61
2023/07/02 14:23:21;;;;;;;14.15;4.63;;;;;;;;;;4876873;29;20090;-61
2023/07/02 14:25:48;;;;;;;11.40;3.58;;;;;;;;;;4877223;29;20036;-61
2023/07/02 14:28:14;;;;;;;18.50;4.97;;;;;;;;;;4877281;29;20039;-61
2023/07/02 14:30:42;;;;;;;14.88;5.05;;;;;;;;;;4876627;29;20055;-61